createdAt,value
2018-08-09T00:00:22.915Z,22.82
2018-08-09T00:02:51.328Z,22.87
2018-08-09T00:05:19.734Z,22.84
2018-08-09T00:07:48.031Z,22.83
2018-08-09T00:10:16.436Z,22.75
2018-08-09T00:12:45.012Z,22.68
2018-08-09T00:15:13.434Z,22.66
2018-08-09T00:17:42.202Z,22.57
2018-08-09T00:20:10.579Z,22.60
2018-08-09T00:22:38.911Z,22.43
2018-08-09T00:25:07.778Z,22.47
2018-08-09T00:27:36.245Z,22.53
2018-08-09T00:30:05.643Z,22.50
2018-08-09T00:32:34.339Z,22.45
2018-08-09T00:35:02.739Z,22.41
2018-08-09T00:37:31.093Z,22.45
2018-08-09T00:39:59.665Z,22.38
2018-08-09T00:42:27.999Z,22.39
2018-08-09T00:44:56.588Z,22.43
2018-08-09T00:47:24.932Z,22.45
2018-08-09T00:49:53.308Z,22.41
2018-08-09T00:52:21.694Z,22.39
2018-08-09T00:54:50.092Z,22.36
2018-08-09T00:57:18.747Z,22.28
2018-08-09T00:59:47.157Z,22.28
2018-08-09T01:02:15.796Z,22.23
2018-08-09T01:04:44.231Z,22.27
2018-08-09T01:07:12.582Z,22.17
2018-08-09T01:09:40.968Z,22.18
2018-08-09T01:12:09.385Z,22.22
2018-08-09T01:14:37.748Z,22.20
2018-08-09T01:17:06.176Z,22.15
2018-08-09T01:19:34.515Z,22.15
2018-08-09T01:22:02.965Z,22.17
2018-08-09T01:24:31.342Z,22.18
2018-08-09T01:26:59.714Z,22.15
2018-08-09T01:29:28.121Z,22.15
2018-08-09T01:31:56.457Z,22.12
2018-08-09T01:34:24.875Z,22.09
2018-08-09T01:36:53.258Z,22.00
2018-08-09T01:39:21.702Z,21.96
2018-08-09T01:42:01.195Z,21.88
2018-08-09T01:44:29.549Z,21.86
2018-08-09T01:46:58.168Z,21.84
2018-08-09T01:49:26.586Z,21.89
2018-08-09T01:51:54.975Z,21.83
2018-08-09T01:54:23.302Z,21.93
2018-08-09T01:56:51.724Z,21.91
2018-08-09T01:59:20.093Z,21.88
2018-08-09T02:01:48.452Z,21.65
2018-08-09T02:04:16.792Z,21.58
2018-08-09T02:06:45.147Z,21.56
2018-08-09T02:09:17.649Z,21.64
2018-08-09T02:11:46.031Z,21.62
2018-08-09T02:14:14.411Z,21.52
2018-08-09T02:16:42.765Z,21.59
2018-08-09T02:19:11.125Z,21.53
2018-08-09T02:22:09.931Z,21.48
2018-08-09T02:24:38.241Z,21.37
2018-08-09T02:27:06.671Z,21.41
2018-08-09T02:29:35.042Z,21.33
2018-08-09T02:32:03.392Z,21.29
2018-08-09T02:34:31.763Z,21.28
2018-08-09T02:39:24.048Z,21.22
2018-08-09T02:41:52.424Z,21.06
2018-08-09T02:44:20.978Z,21.10
2018-08-09T02:46:49.340Z,21.10
2018-08-09T02:49:17.684Z,21.07
2018-08-09T02:51:46.246Z,21.01
2018-08-09T02:54:14.929Z,21.03
2018-08-09T02:56:43.333Z,20.85
2018-08-09T02:59:11.743Z,20.90
2018-08-09T03:01:40.073Z,20.92
2018-08-09T03:04:08.459Z,20.89
2018-08-09T03:06:36.883Z,20.89
2018-08-09T03:09:08.653Z,20.86
2018-08-09T03:11:36.983Z,20.82
2018-08-09T03:14:05.370Z,20.76
2018-08-09T03:16:33.809Z,20.73
2018-08-09T03:19:02.206Z,20.72
2018-08-09T03:21:30.586Z,20.64
2018-08-09T03:23:58.940Z,20.57
2018-08-09T03:26:27.291Z,20.59
2018-08-09T03:28:55.616Z,20.55
2018-08-09T03:31:23.941Z,20.54
2018-08-09T03:33:52.700Z,20.51
2018-08-09T03:36:21.039Z,20.41
2018-08-09T03:38:49.373Z,20.09
2018-08-09T03:41:17.870Z,19.95
2018-08-09T03:43:46.589Z,20.12
2018-08-09T03:46:15.000Z,20.17
2018-08-09T03:48:43.410Z,20.22
2018-08-09T03:51:11.742Z,20.17
2018-08-09T03:53:40.194Z,20.10
2018-08-09T03:56:08.566Z,20.15
2018-08-09T03:58:36.950Z,20.18
2018-08-09T04:01:05.420Z,20.12
2018-08-09T04:03:33.830Z,20.11
2018-08-09T04:06:02.245Z,20.13
2018-08-09T04:08:30.630Z,20.19
2018-08-09T04:10:59.036Z,20.18
2018-08-09T04:13:27.745Z,20.18
2018-08-09T04:15:56.134Z,20.19
2018-08-09T04:18:24.520Z,20.21
2018-08-09T04:20:52.883Z,20.15
2018-08-09T04:23:21.264Z,20.19
2018-08-09T04:25:49.666Z,20.15
2018-08-09T04:28:18.763Z,20.19
2018-08-09T04:30:47.158Z,20.19
2018-08-09T04:33:15.562Z,20.21
2018-08-09T04:35:43.960Z,20.21
2018-08-09T04:38:12.295Z,20.16
2018-08-09T04:40:40.672Z,20.23
2018-08-09T04:43:08.999Z,20.18
2018-08-09T04:45:37.347Z,20.23
2018-08-09T04:48:05.809Z,20.25
2018-08-09T04:50:34.378Z,20.28
2018-08-09T04:53:02.709Z,20.36
2018-08-09T04:55:31.032Z,20.23
2018-08-09T04:57:59.465Z,20.14
2018-08-09T05:00:27.794Z,20.19
2018-08-09T05:02:56.196Z,20.24
2018-08-09T05:05:24.513Z,20.29
2018-08-09T05:07:52.839Z,20.11
2018-08-09T05:10:21.271Z,20.23
2018-08-09T05:12:49.584Z,20.22
2018-08-09T05:15:17.963Z,20.10
2018-08-09T05:17:46.395Z,20.04
2018-08-09T05:20:14.766Z,20.09
2018-08-09T05:22:43.152Z,20.27
2018-08-09T05:25:11.594Z,20.39
2018-08-09T05:27:39.965Z,20.55
2018-08-09T05:30:08.416Z,20.73
2018-08-09T05:32:36.818Z,20.70
2018-08-09T05:35:05.266Z,20.82
2018-08-09T05:37:33.813Z,20.91
2018-08-09T05:40:02.210Z,20.90
2018-08-09T05:42:30.583Z,20.95
2018-08-09T05:44:58.952Z,20.92
2018-08-09T05:47:27.322Z,21.13
2018-08-09T05:49:55.669Z,21.26
2018-08-09T05:52:24.074Z,21.29
2018-08-09T05:54:52.471Z,21.39
2018-08-09T05:57:20.845Z,21.43
2018-08-09T05:59:49.190Z,21.48
2018-08-09T06:02:17.536Z,21.68
2018-08-09T06:04:45.947Z,21.75
2018-08-09T06:07:14.398Z,21.72
2018-08-09T06:09:42.744Z,22.12
2018-08-09T06:12:11.182Z,22.40
2018-08-09T06:14:39.537Z,22.43
2018-08-09T06:17:07.939Z,22.90
2018-08-09T06:19:36.324Z,23.10
2018-08-09T06:22:04.847Z,23.44
2018-08-09T06:24:33.281Z,23.26
2018-08-09T06:27:01.748Z,23.79
2018-08-09T06:29:30.175Z,23.61
2018-08-09T06:31:58.498Z,24.02
2018-08-09T06:34:26.922Z,24.37
2018-08-09T06:36:55.261Z,24.25
2018-08-09T06:39:23.642Z,24.00
2018-08-09T06:41:52.028Z,23.67
2018-08-09T06:44:20.438Z,23.61
2018-08-09T06:46:48.808Z,23.70
2018-08-09T06:49:17.150Z,23.79
2018-08-09T06:51:45.478Z,23.65
2018-08-09T06:54:13.900Z,23.65
2018-08-09T06:56:42.269Z,23.58
2018-08-09T06:59:10.612Z,23.93
2018-08-09T07:01:38.967Z,24.12
2018-08-09T07:04:07.613Z,24.49
2018-08-09T07:06:35.990Z,24.98
2018-08-09T07:09:07.322Z,25.59
2018-08-09T07:11:35.736Z,25.65
2018-08-09T07:14:04.238Z,25.33
2018-08-09T07:16:32.711Z,25.46
2018-08-09T07:19:02.082Z,25.60
2018-08-09T07:21:32.018Z,25.93
2018-08-09T07:24:00.401Z,26.16
2018-08-09T07:26:28.804Z,26.79
2018-08-09T07:28:57.135Z,26.98
2018-08-09T07:31:25.542Z,27.21
2018-08-09T07:33:54.042Z,27.11
2018-08-09T07:36:22.352Z,26.60
2018-08-09T07:38:50.703Z,26.83
2018-08-09T07:41:19.108Z,26.64
2018-08-09T07:43:47.532Z,26.76
2018-08-09T07:46:18.751Z,26.78
2018-08-09T07:48:47.119Z,26.72
2018-08-09T07:51:15.509Z,26.93
2018-08-09T07:53:43.911Z,27.10
2018-08-09T07:56:12.397Z,27.66
2018-08-09T07:58:40.844Z,27.36
2018-08-09T08:01:09.840Z,27.30
2018-08-09T08:03:38.153Z,26.67
2018-08-09T08:06:06.557Z,27.12
2018-08-09T08:08:34.923Z,27.18
2018-08-09T08:11:04.231Z,26.78
2018-08-09T08:13:34.416Z,27.46
2018-08-09T08:16:02.765Z,27.65
2018-08-09T08:18:31.209Z,27.66
2018-08-09T08:20:59.676Z,27.94
2018-08-09T08:23:28.053Z,28.33
2018-08-09T08:25:56.439Z,27.99
2018-08-09T08:28:24.918Z,28.03
2018-08-09T08:30:53.279Z,28.03
2018-08-09T08:33:21.670Z,27.73
2018-08-09T08:35:50.086Z,27.71
2018-08-09T08:38:18.815Z,27.51
2018-08-09T08:40:47.226Z,27.53
2018-08-09T08:43:15.589Z,27.72
2018-08-09T08:45:43.948Z,27.82
2018-08-09T08:48:12.380Z,27.44
2018-08-09T08:50:40.796Z,27.66
2018-08-09T08:53:09.602Z,27.46
2018-08-09T08:55:38.534Z,27.57
2018-08-09T08:58:06.894Z,27.51
2018-08-09T09:00:35.342Z,27.36
2018-08-09T09:03:03.738Z,27.31
2018-08-09T09:05:32.056Z,27.36
2018-08-09T09:08:00.446Z,27.60
2018-08-09T09:10:29.160Z,27.41
2018-08-09T09:12:57.675Z,28.00
2018-08-09T09:15:26.054Z,27.98
2018-08-09T09:17:54.425Z,28.19
2018-08-09T09:20:22.823Z,27.83
2018-08-09T09:22:51.245Z,27.83
2018-08-09T09:25:19.866Z,27.75
2018-08-09T09:27:48.254Z,27.90
2018-08-09T09:30:18.346Z,27.64
2018-08-09T09:32:46.930Z,28.00
2018-08-09T09:35:15.357Z,28.06
2018-08-09T09:37:44.023Z,28.23
2018-08-09T09:40:12.507Z,28.38
2018-08-09T09:42:40.849Z,28.37
2018-08-09T09:45:10.203Z,28.45
2018-08-09T09:47:38.644Z,28.24
2018-08-09T09:50:08.556Z,28.38
2018-08-09T09:52:36.963Z,28.06
2018-08-09T09:55:05.745Z,28.11
2018-08-09T09:57:34.099Z,28.39
2018-08-09T10:00:03.041Z,28.75
2018-08-09T10:02:31.431Z,29.01
2018-08-09T10:04:59.970Z,29.07
2018-08-09T10:07:28.298Z,29.20
2018-08-09T10:09:56.664Z,29.30
2018-08-09T10:12:25.074Z,29.37
2018-08-09T10:14:53.479Z,29.17
2018-08-09T10:17:21.830Z,29.27
2018-08-09T10:19:50.210Z,29.24
2018-08-09T10:22:18.971Z,29.13
2018-08-09T10:24:47.348Z,29.19
2018-08-09T10:27:15.756Z,29.38
2018-08-09T10:29:44.112Z,29.22
2018-08-09T10:32:12.439Z,29.41
2018-08-09T10:34:40.850Z,29.65
2018-08-09T10:37:09.228Z,29.62
2018-08-09T10:39:37.628Z,29.70
2018-08-09T10:42:05.971Z,29.57
2018-08-09T10:44:34.304Z,29.76
2018-08-09T10:47:02.653Z,29.78
2018-08-09T10:49:31.068Z,29.69
2018-08-09T10:51:59.483Z,29.76
2018-08-09T10:54:27.809Z,29.65
2018-08-09T10:56:56.540Z,29.41
2018-08-09T10:59:24.904Z,29.52
2018-08-09T11:01:53.315Z,29.76
2018-08-09T11:04:21.685Z,29.80
2018-08-09T11:06:50.040Z,29.88
2018-08-09T11:09:18.432Z,30.11
2018-08-09T11:11:46.802Z,29.98
2018-08-09T11:14:15.256Z,29.75
2018-08-09T11:16:43.717Z,29.92
2018-08-09T11:19:12.194Z,29.94
2018-08-09T11:21:40.616Z,29.92
2018-08-09T11:24:09.003Z,29.81
2018-08-09T11:26:37.523Z,29.86
2018-08-09T11:29:05.988Z,29.81
2018-08-09T11:31:34.434Z,29.90
2018-08-09T11:34:03.123Z,30.16
2018-08-09T11:36:31.538Z,29.99
2018-08-09T11:38:59.935Z,30.18
2018-08-09T11:41:28.338Z,30.30
2018-08-09T11:43:56.762Z,30.23
2018-08-09T11:46:25.241Z,29.97
2018-08-09T11:48:53.585Z,29.94
2018-08-09T11:51:21.978Z,29.96
2018-08-09T11:53:50.455Z,29.98
2018-08-09T11:56:18.876Z,30.03
2018-08-09T11:58:47.300Z,30.02
2018-08-09T12:01:15.694Z,29.99
2018-08-09T12:03:44.084Z,30.08
2018-08-09T12:06:12.434Z,30.15
2018-08-09T12:08:40.802Z,30.31
2018-08-09T12:11:09.291Z,30.54
2018-08-09T12:13:37.889Z,30.57
2018-08-09T12:16:06.222Z,30.68
2018-08-09T12:18:34.635Z,30.76
2018-08-09T12:21:03.150Z,30.94
2018-08-09T12:23:31.557Z,30.87
2018-08-09T12:26:00.004Z,30.87
2018-08-09T12:28:28.486Z,31.06
2018-08-09T12:30:56.843Z,31.11
2018-08-09T12:33:25.788Z,31.18
2018-08-09T12:35:54.167Z,31.29
2018-08-09T12:38:22.458Z,31.42
2018-08-09T12:40:51.207Z,31.54
2018-08-09T12:43:19.652Z,31.38
2018-08-09T12:45:48.021Z,31.58
2018-08-09T12:48:16.433Z,31.53
2018-08-09T12:50:45.088Z,31.50
2018-08-09T12:53:13.522Z,31.75
2018-08-09T12:55:41.958Z,31.88
2018-08-09T12:58:10.389Z,31.97
2018-08-09T13:00:38.809Z,31.69
2018-08-09T13:03:07.178Z,31.52
2018-08-09T13:05:35.559Z,31.38
2018-08-09T13:08:03.956Z,31.27
2018-08-09T13:10:32.377Z,31.32
2018-08-09T13:13:00.820Z,31.30
2018-08-09T13:15:29.172Z,31.39
2018-08-09T13:17:57.637Z,31.31
2018-08-09T13:20:26.144Z,31.30
2018-08-09T13:22:54.537Z,31.42
2018-08-09T13:25:22.930Z,31.41
2018-08-09T13:27:51.404Z,31.58
2018-08-09T13:30:19.824Z,31.62
2018-08-09T13:32:48.348Z,31.65
2018-08-09T13:35:16.754Z,31.58
2018-08-09T13:37:45.205Z,31.61
2018-08-09T13:40:13.582Z,31.66
2018-08-09T13:42:42.100Z,31.76
2018-08-09T13:45:21.258Z,31.94
2018-08-09T13:47:49.675Z,32.07
2018-08-09T13:50:18.088Z,32.37
2018-08-09T13:52:46.489Z,32.44
2018-08-09T13:55:15.614Z,32.68
2018-08-09T13:57:44.381Z,32.73
2018-08-09T14:00:13.721Z,32.84
2018-08-09T14:02:43.688Z,32.92
2018-08-09T14:05:12.102Z,33.04
2018-08-09T14:07:42.131Z,33.11
2018-08-09T14:10:11.572Z,33.19
2018-08-09T14:12:40.521Z,33.21
2018-08-09T14:15:09.866Z,33.09
2018-08-09T14:17:38.831Z,33.07
2018-08-09T14:20:08.964Z,33.08
2018-08-09T14:22:37.375Z,33.12
2018-08-09T14:25:06.258Z,33.17
2018-08-09T14:27:34.711Z,33.27
2018-08-09T14:30:03.117Z,33.23
2018-08-09T14:32:31.549Z,33.22
2018-08-09T14:34:59.926Z,33.34
2018-08-09T14:37:28.334Z,33.38
2018-08-09T14:39:58.377Z,33.46
2018-08-09T14:42:26.984Z,33.54
2018-08-09T14:44:55.539Z,33.55
2018-08-09T14:47:23.981Z,33.61
2018-08-09T14:49:52.421Z,33.63
2018-08-09T14:52:20.879Z,33.70
2018-08-09T14:54:49.345Z,33.54
2018-08-09T14:57:17.792Z,33.50
2018-08-09T14:59:46.198Z,33.47
2018-08-09T15:02:14.705Z,33.48
2018-08-09T15:04:43.245Z,33.43
2018-08-09T15:07:11.626Z,33.33
2018-08-09T15:09:40.075Z,33.35
2018-08-09T15:12:08.607Z,33.23
2018-08-09T15:14:37.081Z,33.18
2018-08-09T15:17:05.622Z,33.16
2018-08-09T15:19:34.244Z,33.14
2018-08-09T15:22:02.645Z,33.11
2018-08-09T15:24:31.317Z,33.11
2018-08-09T15:26:59.716Z,33.09
2018-08-09T15:29:28.105Z,33.10
2018-08-09T15:31:56.527Z,33.11
2018-08-09T15:34:24.968Z,33.06
2018-08-09T15:36:53.437Z,33.17
2018-08-09T15:39:21.824Z,33.08
2018-08-09T15:41:50.223Z,33.08
2018-08-09T15:44:18.552Z,32.97
2018-08-09T15:46:46.988Z,33.07
2018-08-09T15:49:15.438Z,32.93
2018-08-09T15:51:43.895Z,32.94
2018-08-09T15:54:12.223Z,32.89
2018-08-09T15:56:40.595Z,32.83
2018-08-09T15:59:08.968Z,32.66
2018-08-09T16:01:37.478Z,32.38
2018-08-09T16:04:05.850Z,31.67
2018-08-09T16:06:34.260Z,31.37
2018-08-09T16:09:02.713Z,31.36
2018-08-09T16:11:31.332Z,30.90
2018-08-09T16:14:07.778Z,30.60
2018-08-09T16:16:37.354Z,30.06
2018-08-09T16:19:06.511Z,29.74
2018-08-09T16:21:34.839Z,29.68
2018-08-09T16:24:03.295Z,29.66
2018-08-09T16:26:31.839Z,29.50
2018-08-09T16:29:00.342Z,29.02
2018-08-09T16:31:29.028Z,28.38
2018-08-09T16:33:57.640Z,27.96
2018-08-09T16:36:26.176Z,27.79
2018-08-09T16:38:54.958Z,27.31
2018-08-09T16:41:26.516Z,26.99
2018-08-09T16:43:56.189Z,27.02
2018-08-09T16:46:24.828Z,26.64
2018-08-09T16:48:53.567Z,26.29
2018-08-09T16:51:22.096Z,26.03
2018-08-09T16:53:51.981Z,25.24
2018-08-09T16:56:23.608Z,23.95
2018-08-09T16:58:52.114Z,23.05
2018-08-09T17:01:21.870Z,22.96
2018-08-09T17:03:50.362Z,22.33
2018-08-09T17:06:18.884Z,22.14
2018-08-09T17:08:47.701Z,22.08
2018-08-09T17:11:16.491Z,22.01
2018-08-09T17:13:45.312Z,21.82
2018-08-09T17:16:14.144Z,21.84
2018-08-09T17:18:42.643Z,22.14
2018-08-09T17:21:11.202Z,22.27
2018-08-09T17:23:39.806Z,22.18
2018-08-09T17:26:10.311Z,22.32
2018-08-09T17:28:39.783Z,21.90
2018-08-09T17:31:09.060Z,21.78
2018-08-09T17:33:38.052Z,21.54
2018-08-09T17:36:06.815Z,21.78
2018-08-09T17:38:35.964Z,21.78
2018-08-09T17:41:04.757Z,21.84
2018-08-09T17:43:33.230Z,22.18
2018-08-09T17:46:02.193Z,22.14
2018-08-09T17:48:32.473Z,22.09
2018-08-09T17:51:01.447Z,22.09
2018-08-09T17:53:31.168Z,22.03
2018-08-09T17:56:00.598Z,21.97
2018-08-09T17:58:29.961Z,22.01
2018-08-09T18:00:59.069Z,21.96
2018-08-09T18:03:28.967Z,22.12
2018-08-09T18:05:58.507Z,21.95
2018-08-09T18:08:27.594Z,21.90
2018-08-09T18:10:56.563Z,22.04
2018-08-09T18:13:25.462Z,21.85
2018-08-09T18:15:58.546Z,22.04
2018-08-09T18:18:27.239Z,21.97
2018-08-09T18:20:55.865Z,22.02
2018-08-09T18:23:25.351Z,22.11
2018-08-09T18:25:54.545Z,22.13
2018-08-09T18:28:24.190Z,22.11
2018-08-09T18:30:53.634Z,21.82
2018-08-09T18:33:23.271Z,21.85
2018-08-09T18:35:53.195Z,21.83
2018-08-09T18:38:22.788Z,21.82
2018-08-09T18:40:52.115Z,21.69
2018-08-09T18:43:21.311Z,21.62
2018-08-09T18:45:50.994Z,21.64
2018-08-09T18:48:20.492Z,21.57
2018-08-09T18:50:49.753Z,21.54
2018-08-09T18:53:19.357Z,21.62
2018-08-09T18:55:50.528Z,21.63
2018-08-09T18:58:19.763Z,21.61
2018-08-09T19:00:48.935Z,21.64
2018-08-09T19:03:18.250Z,21.64
2018-08-09T19:05:46.634Z,21.58
2018-08-09T19:08:15.932Z,21.64
2018-08-09T19:10:45.359Z,21.52
2018-08-09T19:13:15.179Z,21.53
2018-08-09T19:15:44.501Z,21.65
2018-08-09T19:18:13.579Z,21.47
2018-08-09T19:20:42.909Z,21.37
2018-08-09T19:23:13.366Z,21.36
2018-08-09T19:25:42.541Z,21.33
2018-08-09T19:28:11.816Z,21.32
2018-08-09T19:30:41.288Z,21.22
2018-08-09T19:33:10.548Z,21.26
2018-08-09T19:35:39.843Z,21.28
2018-08-09T19:38:09.191Z,21.29
2018-08-09T19:40:38.599Z,21.21
2018-08-09T19:43:07.932Z,21.14
2018-08-09T19:45:37.219Z,21.20
2018-08-09T19:48:06.538Z,21.16
2018-08-09T19:50:35.867Z,21.17
2018-08-09T19:53:05.743Z,21.20
2018-08-09T19:55:36.045Z,21.15
2018-08-09T19:58:06.938Z,21.02
2018-08-09T20:00:38.206Z,21.07
2018-08-09T20:03:07.564Z,20.98
2018-08-09T20:05:36.736Z,20.98
2018-08-09T20:08:07.679Z,20.96
2018-08-09T20:10:37.975Z,21.00
2018-08-09T20:13:07.585Z,20.97
2018-08-09T20:15:39.892Z,20.94
2018-08-09T20:18:09.120Z,21.04
2018-08-09T20:20:39.383Z,21.00
2018-08-09T20:23:08.734Z,21.01
2018-08-09T20:25:38.024Z,20.99
2018-08-09T20:28:07.379Z,20.98
2018-08-09T20:30:36.534Z,21.01
2018-08-09T20:33:06.586Z,21.00
2018-08-09T20:35:35.863Z,20.97
2018-08-09T20:38:05.958Z,21.04
2018-08-09T20:40:35.285Z,21.03
2018-08-09T20:43:10.723Z,21.05
2018-08-09T20:45:39.782Z,21.09
2018-08-09T20:48:09.012Z,21.09
2018-08-09T20:50:38.252Z,21.08
2018-08-09T20:53:08.068Z,21.07
2018-08-09T20:55:37.094Z,21.08
2018-08-09T20:58:06.392Z,21.05
2018-08-09T21:00:36.517Z,21.07
2018-08-09T21:03:05.874Z,21.09
2018-08-09T21:05:37.065Z,21.04
2018-08-09T21:08:05.806Z,20.97
2018-08-09T21:10:35.343Z,21.02
2018-08-09T21:13:04.074Z,21.04
2018-08-09T21:15:33.160Z,21.05
2018-08-09T21:18:02.165Z,21.08
2018-08-09T21:20:31.123Z,21.05
2018-08-09T21:22:59.642Z,21.07
2018-08-09T21:25:28.897Z,21.03
2018-08-09T21:27:59.127Z,21.12
2018-08-09T21:30:28.449Z,21.13
2018-08-09T21:32:57.469Z,21.12
2018-08-09T21:35:27.036Z,21.11
2018-08-09T21:37:55.823Z,21.15
2018-08-09T21:40:24.843Z,21.13
2018-08-09T21:42:54.143Z,21.14
2018-08-09T21:45:23.485Z,21.15
2018-08-09T21:47:52.665Z,21.16
2018-08-09T21:50:22.973Z,21.16
2018-08-09T21:52:52.336Z,21.04
2018-08-09T21:55:21.656Z,21.16
2018-08-09T21:57:50.604Z,21.20
2018-08-09T22:00:49.260Z,21.17
2018-08-09T22:03:20.539Z,21.21
2018-08-09T22:05:54.930Z,21.20
2018-08-09T22:08:30.015Z,21.16
2018-08-09T22:13:07.616Z,21.17
2018-08-09T22:15:41.219Z,21.19
2018-08-09T22:20:17.907Z,21.22
2018-08-09T22:22:46.743Z,21.20
2018-08-09T22:25:15.400Z,21.21
2018-08-09T22:27:44.598Z,21.18
2018-08-09T22:30:15.024Z,21.20
2018-08-09T22:32:44.008Z,21.22
2018-08-09T22:35:12.658Z,21.28
2018-08-09T22:37:41.815Z,21.28
2018-08-09T22:40:11.317Z,21.27
2018-08-09T22:42:40.369Z,21.23
2018-08-09T22:45:09.873Z,21.19
2018-08-09T22:47:39.001Z,21.21
2018-08-09T22:50:08.328Z,21.23
2018-08-09T22:52:37.581Z,21.20
2018-08-09T22:55:06.047Z,21.24
2018-08-09T22:57:35.115Z,21.27
2018-08-09T23:00:06.486Z,21.33
2018-08-09T23:02:35.544Z,21.34
2018-08-09T23:05:04.229Z,21.36
2018-08-09T23:07:32.640Z,21.32
2018-08-09T23:10:01.090Z,21.36
2018-08-09T23:12:29.467Z,21.33
2018-08-09T23:14:57.852Z,21.37
2018-08-09T23:17:26.199Z,21.41
2018-08-09T23:19:54.604Z,21.36
2018-08-09T23:22:22.920Z,21.43
2018-08-09T23:24:51.295Z,21.36
2018-08-09T23:27:19.700Z,21.35
2018-08-09T23:29:48.141Z,21.31
2018-08-09T23:32:16.526Z,21.37
2018-08-09T23:34:45.908Z,21.35
2018-08-09T23:37:14.392Z,21.35
2018-08-09T23:39:42.765Z,21.33
2018-08-09T23:42:11.228Z,21.35
2018-08-09T23:44:39.612Z,21.36
2018-08-09T23:47:08.170Z,21.35
2018-08-09T23:49:36.696Z,21.28
2018-08-09T23:52:05.157Z,21.27
2018-08-09T23:54:33.512Z,21.24
2018-08-09T23:57:01.932Z,21.26
2018-08-09T23:59:30.249Z,21.19
